createdAt,value
2018-02-09T00:00:50.846Z,-1.10
2018-02-09T00:03:18.315Z,-1.10
2018-02-09T00:05:45.942Z,-1.20
2018-02-09T00:08:13.487Z,-1.20
2018-02-09T00:10:40.988Z,-1.10
2018-02-09T00:13:08.452Z,-1.10
2018-02-09T00:15:36.114Z,-1.10
2018-02-09T00:18:04.219Z,-0.90
2018-02-09T00:20:31.696Z,-0.90
2018-02-09T00:22:59.936Z,-0.90
2018-02-09T00:25:27.496Z,-0.90
2018-02-09T00:27:54.976Z,-0.90
2018-02-09T00:30:23.214Z,-0.90
2018-02-09T00:32:50.726Z,-0.90
2018-02-09T00:35:18.967Z,-1.00
2018-02-09T00:37:46.434Z,-1.00
2018-02-09T00:40:13.909Z,-1.00
2018-02-09T00:42:42.235Z,-1.00
2018-02-09T00:45:10.507Z,-1.00
2018-02-09T00:47:37.997Z,-1.00
2018-02-09T00:50:05.470Z,-1.00
2018-02-09T00:52:33.728Z,-1.20
2018-02-09T00:55:01.206Z,-1.20
2018-02-09T00:57:28.813Z,-1.20
2018-02-09T00:59:56.361Z,-1.20
2018-02-09T01:02:23.857Z,-1.10
2018-02-09T01:04:51.326Z,-1.00
2018-02-09T01:07:18.903Z,-1.10
2018-02-09T01:09:46.423Z,-1.20
2018-02-09T01:12:13.876Z,-1.10
2018-02-09T01:14:41.352Z,-1.00
2018-02-09T01:17:08.870Z,-1.10
2018-02-09T01:19:36.340Z,-1.00
2018-02-09T01:22:03.809Z,-1.10
2018-02-09T01:24:31.283Z,-1.10
2018-02-09T01:26:59.543Z,-1.20
2018-02-09T01:29:27.102Z,-1.20
2018-02-09T01:31:54.590Z,-1.10
2018-02-09T01:34:22.068Z,-1.00
2018-02-09T01:36:49.632Z,-1.00
2018-02-09T01:39:17.156Z,-1.00
2018-02-09T01:41:44.713Z,-1.10
2018-02-09T01:44:12.990Z,-1.10
2018-02-09T01:46:40.509Z,-1.10
2018-02-09T01:49:07.996Z,-1.00
2018-02-09T01:51:35.493Z,-1.10
2018-02-09T01:54:02.981Z,-1.10
2018-02-09T01:56:30.467Z,-1.00
2018-02-09T01:58:58.522Z,-1.00
2018-02-09T02:01:26.750Z,-1.20
2018-02-09T02:03:54.977Z,-1.40
2018-02-09T02:06:22.429Z,-1.40
2018-02-09T02:08:49.890Z,-1.20
2018-02-09T02:11:18.107Z,-1.10
2018-02-09T02:13:45.601Z,-1.10
2018-02-09T02:16:13.082Z,-1.00
2018-02-09T02:18:41.352Z,-1.20
2018-02-09T02:21:08.807Z,-1.20
2018-02-09T02:23:37.150Z,-1.00
2018-02-09T02:26:04.617Z,-1.00
2018-02-09T02:28:32.065Z,-1.00
2018-02-09T02:30:59.573Z,-0.90
2018-02-09T02:33:27.040Z,-0.90
2018-02-09T02:35:54.534Z,-0.80
2018-02-09T02:38:22.038Z,-0.90
2018-02-09T02:40:49.511Z,-1.00
2018-02-09T02:43:17.772Z,-0.90
2018-02-09T02:45:45.240Z,-0.90
2018-02-09T02:48:12.731Z,-0.90
2018-02-09T02:51:03.107Z,-1.00
2018-02-09T02:53:30.626Z,-1.10
2018-02-09T02:55:58.172Z,-0.90
2018-02-09T02:58:25.737Z,-1.10
2018-02-09T03:00:53.225Z,-1.20
2018-02-09T03:03:20.676Z,-1.10
2018-02-09T03:05:48.155Z,-1.00
2018-02-09T03:08:15.652Z,-1.30
2018-02-09T03:10:43.112Z,-1.10
2018-02-09T03:13:11.350Z,-0.90
2018-02-09T03:15:38.909Z,-0.90
2018-02-09T03:18:06.431Z,-0.90
2018-02-09T03:20:33.915Z,-0.80
2018-02-09T03:23:01.369Z,-0.80
2018-02-09T03:25:28.927Z,-0.70
2018-02-09T03:27:56.377Z,-0.70
2018-02-09T03:30:23.856Z,-0.70
2018-02-09T03:32:51.302Z,-0.70
2018-02-09T03:35:18.785Z,-0.60
2018-02-09T03:37:46.310Z,-0.70
2018-02-09T03:40:13.775Z,-0.70
2018-02-09T03:42:41.271Z,-0.60
2018-02-09T03:45:09.528Z,-0.60
2018-02-09T03:47:37.056Z,-0.60
2018-02-09T03:50:04.614Z,-0.60
2018-02-09T03:52:40.116Z,-0.70
2018-02-09T03:55:13.722Z,-0.80
2018-02-09T04:03:28.773Z,-0.80
2018-02-09T04:06:00.893Z,-0.70
2018-02-09T04:08:28.380Z,-0.70
2018-02-09T04:10:55.838Z,-0.80
2018-02-09T04:13:23.327Z,-1.00
2018-02-09T04:15:50.802Z,-0.90
2018-02-09T04:18:18.804Z,-1.00
2018-02-09T04:20:50.494Z,-0.90
2018-02-09T04:23:17.974Z,-0.90
2018-02-09T04:25:45.440Z,-0.90
2018-02-09T04:28:12.886Z,-0.90
2018-02-09T04:30:41.131Z,-0.70
2018-02-09T04:33:08.624Z,-0.80
2018-02-09T04:35:36.850Z,-0.80
2018-02-09T04:38:04.321Z,-0.80
2018-02-09T04:40:31.780Z,-0.70
2018-02-09T04:43:00.151Z,-1.00
2018-02-09T04:45:27.701Z,-1.10
2018-02-09T04:47:55.248Z,-1.00
2018-02-09T04:50:22.727Z,-0.90
2018-02-09T04:52:50.191Z,-0.90
2018-02-09T04:55:17.810Z,-0.80
2018-02-09T04:57:45.268Z,-0.80
2018-02-09T05:00:12.979Z,-0.90
2018-02-09T05:02:40.549Z,-0.80
2018-02-09T05:05:08.031Z,-0.80
2018-02-09T05:07:35.558Z,-0.90
2018-02-09T05:10:03.084Z,-0.90
2018-02-09T05:12:30.619Z,-0.90
2018-02-09T05:14:58.975Z,-1.00
2018-02-09T05:17:26.526Z,-0.90
2018-02-09T05:19:54.015Z,-0.90
2018-02-09T05:22:21.476Z,-0.80
2018-02-09T05:24:48.937Z,-0.90
2018-02-09T05:27:17.199Z,-0.80
2018-02-09T05:29:44.681Z,-0.80
2018-02-09T05:32:12.272Z,-0.70
2018-02-09T05:34:40.603Z,-0.80
2018-02-09T05:37:08.062Z,-0.90
2018-02-09T05:39:35.567Z,-1.10
2018-02-09T05:42:03.791Z,-1.00
2018-02-09T05:44:31.248Z,-1.00
2018-02-09T05:46:58.763Z,-1.10
2018-02-09T05:49:27.031Z,-0.80
2018-02-09T05:51:54.495Z,-0.80
2018-02-09T05:54:21.985Z,-0.80
2018-02-09T05:56:49.446Z,-0.70
2018-02-09T05:59:16.910Z,-0.60
2018-02-09T06:01:44.416Z,-0.60
2018-02-09T06:04:12.710Z,-0.70
2018-02-09T06:06:40.562Z,-0.70
2018-02-09T06:09:08.069Z,-0.60
2018-02-09T06:11:35.579Z,-0.60
2018-02-09T06:14:03.895Z,-0.50
2018-02-09T06:16:31.381Z,-0.50
2018-02-09T06:18:59.707Z,-0.40
2018-02-09T06:21:27.219Z,-0.40
2018-02-09T06:23:54.829Z,-0.40
2018-02-09T06:26:22.296Z,-0.70
2018-02-09T06:28:49.789Z,-0.80
2018-02-09T06:31:17.270Z,-0.80
2018-02-09T06:33:45.555Z,-0.50
2018-02-09T06:36:13.174Z,-0.60
2018-02-09T06:38:40.635Z,-0.70
2018-02-09T06:41:08.140Z,-0.60
2018-02-09T06:43:35.688Z,-0.50
2018-02-09T06:46:03.930Z,-0.50
2018-02-09T06:48:31.432Z,-0.40
2018-02-09T06:50:58.929Z,-0.60
2018-02-09T06:53:26.442Z,-0.70
2018-02-09T06:55:54.694Z,-0.50
2018-02-09T06:58:22.912Z,-0.50
2018-02-09T07:00:51.252Z,-0.40
2018-02-09T07:03:19.468Z,-0.50
2018-02-09T07:05:46.962Z,-0.50
2018-02-09T07:08:14.511Z,-0.20
2018-02-09T07:10:42.084Z,-0.20
2018-02-09T07:13:09.651Z,-0.10
2018-02-09T07:15:37.157Z,0.00
2018-02-09T07:18:04.629Z,0.10
2018-02-09T07:20:32.082Z,0.10
2018-02-09T07:22:59.570Z,0.20
2018-02-09T07:25:27.840Z,0.10
2018-02-09T07:27:56.078Z,0.00
2018-02-09T07:30:23.524Z,0.00
2018-02-09T07:32:51.099Z,-0.10
2018-02-09T07:35:18.582Z,-0.20
2018-02-09T07:37:46.830Z,-0.30
2018-02-09T07:40:14.313Z,-0.30
2018-02-09T07:42:42.644Z,-0.10
2018-02-09T07:45:10.150Z,-0.10
2018-02-09T07:47:37.704Z,0.00
2018-02-09T07:50:05.949Z,0.10
2018-02-09T07:52:33.447Z,0.10
2018-02-09T07:55:01.703Z,0.30
2018-02-09T07:57:29.170Z,0.30
2018-02-09T07:59:57.438Z,0.40
2018-02-09T08:02:24.888Z,0.30
2018-02-09T08:04:52.480Z,0.30
2018-02-09T08:07:19.924Z,0.30
2018-02-09T08:09:48.160Z,0.40
2018-02-09T08:12:15.666Z,0.40
2018-02-09T08:14:43.255Z,0.40
2018-02-09T08:17:10.854Z,0.40
2018-02-09T08:19:38.306Z,0.20
2018-02-09T08:22:05.799Z,0.10
2018-02-09T08:24:33.260Z,0.30
2018-02-09T08:27:00.819Z,0.60
2018-02-09T08:29:28.319Z,0.60
2018-02-09T08:31:55.753Z,0.50
2018-02-09T08:34:23.224Z,0.40
2018-02-09T08:36:50.688Z,0.50
2018-02-09T08:39:18.166Z,0.50
2018-02-09T08:41:45.693Z,0.70
2018-02-09T08:44:13.225Z,0.70
2018-02-09T08:46:40.675Z,0.80
2018-02-09T08:49:08.188Z,0.80
2018-02-09T08:51:35.657Z,0.90
2018-02-09T08:54:03.159Z,1.00
2018-02-09T08:56:31.233Z,0.80
2018-02-09T08:58:58.730Z,0.80
2018-02-09T09:01:26.201Z,1.10
2018-02-09T09:03:53.697Z,0.80
2018-02-09T09:06:21.162Z,0.80
2018-02-09T09:08:48.721Z,0.80
2018-02-09T09:11:16.184Z,0.90
2018-02-09T09:13:43.748Z,0.90
2018-02-09T09:16:11.250Z,0.90
2018-02-09T09:18:38.727Z,0.80
2018-02-09T09:21:06.193Z,0.80
2018-02-09T09:23:33.667Z,0.80
2018-02-09T09:26:01.216Z,0.90
2018-02-09T09:28:28.673Z,1.00
2018-02-09T09:30:56.140Z,1.10
2018-02-09T09:33:23.655Z,1.10
2018-02-09T09:35:51.881Z,1.10
2018-02-09T09:38:19.372Z,1.10
2018-02-09T09:40:47.001Z,1.10
2018-02-09T09:43:14.472Z,1.30
2018-02-09T09:45:41.987Z,1.00
2018-02-09T09:48:09.432Z,1.10
2018-02-09T09:50:36.928Z,1.10
2018-02-09T09:53:04.459Z,1.00
2018-02-09T09:55:31.933Z,1.10
2018-02-09T09:57:59.382Z,1.10
2018-02-09T10:00:26.974Z,1.10
2018-02-09T10:02:54.474Z,1.30
2018-02-09T10:05:21.959Z,1.40
2018-02-09T10:07:49.418Z,1.30
2018-02-09T10:10:16.961Z,1.40
2018-02-09T10:12:44.443Z,1.30
2018-02-09T10:15:11.879Z,1.40
2018-02-09T10:17:39.373Z,1.50
2018-02-09T10:20:06.922Z,1.60
2018-02-09T10:22:34.406Z,1.50
2018-02-09T10:25:01.872Z,1.60
2018-02-09T10:27:29.613Z,1.60
2018-02-09T10:30:16.593Z,1.60
2018-02-09T10:32:44.252Z,1.60
2018-02-09T10:35:11.738Z,1.60
2018-02-09T10:37:39.271Z,1.80
2018-02-09T10:40:06.743Z,1.80
2018-02-09T10:42:34.278Z,1.90
2018-02-09T10:45:01.796Z,2.00
2018-02-09T10:47:29.270Z,2.00
2018-02-09T10:49:56.721Z,2.10
2018-02-09T10:52:24.191Z,2.10
2018-02-09T10:54:51.706Z,2.20
2018-02-09T10:57:19.155Z,2.30
2018-02-09T10:59:47.429Z,2.20
2018-02-09T11:02:15.705Z,2.00
2018-02-09T11:04:43.952Z,2.00
2018-02-09T11:07:11.402Z,2.00
2018-02-09T11:09:38.886Z,2.00
2018-02-09T11:12:07.200Z,1.90
2018-02-09T11:14:34.790Z,1.90
2018-02-09T11:17:02.258Z,2.00
2018-02-09T11:19:29.773Z,2.20
2018-02-09T11:21:57.231Z,2.30
2018-02-09T11:24:24.696Z,2.20
2018-02-09T11:26:52.202Z,2.30
2018-02-09T11:29:19.655Z,2.10
2018-02-09T11:31:47.217Z,1.90
2018-02-09T11:34:14.687Z,2.10
2018-02-09T11:36:42.151Z,2.10
2018-02-09T11:39:09.661Z,2.20
2018-02-09T11:41:37.113Z,2.10
2018-02-09T11:44:04.573Z,2.10
2018-02-09T11:46:32.073Z,2.10
2018-02-09T11:49:00.332Z,2.00
2018-02-09T11:51:27.812Z,2.00
2018-02-09T11:53:55.267Z,2.10
2018-02-09T11:56:22.787Z,2.00
2018-02-09T11:58:50.204Z,2.10
2018-02-09T12:01:17.688Z,2.10
2018-02-09T12:03:45.667Z,2.00
2018-02-09T12:06:13.152Z,2.20
2018-02-09T12:08:40.648Z,2.10
2018-02-09T12:11:08.201Z,2.00
2018-02-09T12:13:35.659Z,2.10
2018-02-09T12:16:03.117Z,2.00
2018-02-09T12:18:30.610Z,2.20
2018-02-09T12:20:58.105Z,2.20
2018-02-09T12:23:25.573Z,2.00
2018-02-09T12:25:53.060Z,2.00
2018-02-09T12:28:20.539Z,1.90
2018-02-09T12:30:47.987Z,1.90
2018-02-09T12:33:15.450Z,1.90
2018-02-09T12:35:43.055Z,1.80
2018-02-09T12:38:10.509Z,1.80
2018-02-09T12:40:37.971Z,1.80
2018-02-09T12:43:05.430Z,1.80
2018-02-09T12:45:33.708Z,1.90
2018-02-09T12:48:01.220Z,1.90
2018-02-09T12:50:29.459Z,1.90
2018-02-09T12:52:56.903Z,1.80
2018-02-09T12:55:24.378Z,1.80
2018-02-09T12:57:51.890Z,1.90
2018-02-09T13:00:19.373Z,2.00
2018-02-09T13:02:46.885Z,2.00
2018-02-09T13:05:15.125Z,1.90
2018-02-09T13:07:42.630Z,1.90
2018-02-09T13:10:10.083Z,1.80
2018-02-09T13:12:49.351Z,2.00
2018-02-09T13:15:16.874Z,2.00
2018-02-09T13:17:45.150Z,2.20
2018-02-09T13:20:13.392Z,2.00
2018-02-09T13:22:52.642Z,2.00
2018-02-09T13:25:20.088Z,2.10
2018-02-09T13:27:47.589Z,2.20
2018-02-09T13:30:15.110Z,2.20
2018-02-09T13:32:55.232Z,2.20
2018-02-09T13:35:22.689Z,2.20
2018-02-09T13:37:50.203Z,2.20
2018-02-09T13:40:17.628Z,2.30
2018-02-09T13:42:45.174Z,2.30
2018-02-09T13:45:12.634Z,2.30
2018-02-09T13:47:40.083Z,2.20
2018-02-09T13:50:07.588Z,2.30
2018-02-09T13:52:35.118Z,2.20
2018-02-09T13:55:03.428Z,2.10
2018-02-09T13:57:30.922Z,2.10
2018-02-09T13:59:58.388Z,2.10
2018-02-09T14:02:25.832Z,2.10
2018-02-09T14:04:53.301Z,2.10
2018-02-09T14:07:20.765Z,2.10
2018-02-09T14:09:48.241Z,2.00
2018-02-09T14:12:16.439Z,2.00
2018-02-09T14:14:43.916Z,2.00
2018-02-09T14:17:11.414Z,2.10
2018-02-09T14:19:39.751Z,2.00
2018-02-09T14:22:07.254Z,2.00
2018-02-09T14:24:34.765Z,2.10
2018-02-09T14:27:02.327Z,2.20
2018-02-09T14:29:29.805Z,2.20
2018-02-09T14:31:57.230Z,2.10
2018-02-09T14:34:24.717Z,2.10
2018-02-09T14:36:52.195Z,2.10
2018-02-09T14:39:20.450Z,2.00
2018-02-09T14:41:47.994Z,2.00
2018-02-09T14:44:15.461Z,2.00
2018-02-09T14:46:43.005Z,2.00
2018-02-09T14:49:10.448Z,2.10
2018-02-09T14:51:37.926Z,2.10
2018-02-09T14:54:05.433Z,2.10
2018-02-09T14:56:33.674Z,2.20
2018-02-09T14:59:01.268Z,2.30
2018-02-09T15:01:28.740Z,2.20
2018-02-09T15:03:56.202Z,2.10
2018-02-09T15:06:23.659Z,2.20
2018-02-09T15:08:51.136Z,2.20
2018-02-09T15:11:18.605Z,2.20
2018-02-09T15:13:46.098Z,2.20
2018-02-09T15:16:13.575Z,2.20
2018-02-09T15:18:41.139Z,2.20
2018-02-09T15:21:08.595Z,2.20
2018-02-09T15:23:36.071Z,2.20
2018-02-09T15:26:03.568Z,2.20
2018-02-09T15:40:20.739Z,2.10
2018-02-09T15:42:56.511Z,2.20
2018-02-09T15:45:24.072Z,2.10
2018-02-09T15:47:52.365Z,2.10
2018-02-09T15:59:13.686Z,2.10
2018-02-09T16:01:41.204Z,2.10
2018-02-09T16:04:08.759Z,2.20
2018-02-09T16:06:36.838Z,2.20
2018-02-09T16:09:04.312Z,2.30
2018-02-09T16:11:36.246Z,2.30
2018-02-09T16:14:04.586Z,2.30
2018-02-09T16:16:32.178Z,2.30
2018-02-09T16:19:05.295Z,2.30
2018-02-09T16:21:52.119Z,2.30
2018-02-09T16:24:19.658Z,2.20
2018-02-09T16:26:47.164Z,2.20
2018-02-09T16:29:22.234Z,2.30
2018-02-09T16:31:49.750Z,2.30
2018-02-09T16:34:17.267Z,2.20
2018-02-09T16:36:44.848Z,2.30
2018-02-09T16:39:12.329Z,2.30
2018-02-09T16:41:39.851Z,2.40
2018-02-09T16:44:07.414Z,2.30
2018-02-09T16:46:36.290Z,2.40
2018-02-09T16:49:03.802Z,2.30
2018-02-09T16:51:31.310Z,2.40
2018-02-09T16:53:58.849Z,2.40
2018-02-09T16:56:27.221Z,2.50
2018-02-09T16:58:54.768Z,2.50
2018-02-09T17:01:22.221Z,2.50
2018-02-09T17:03:49.712Z,2.50
2018-02-09T17:09:24.619Z,2.40
2018-02-09T17:11:52.173Z,2.40
2018-02-09T17:14:19.810Z,2.40
2018-02-09T17:16:47.505Z,2.40
2018-02-09T17:19:15.057Z,2.30
2018-02-09T17:21:43.323Z,2.40
2018-02-09T17:24:10.869Z,2.50
2018-02-09T17:26:38.355Z,2.50
2018-02-09T17:29:05.905Z,2.50
2018-02-09T17:31:33.404Z,2.50
2018-02-09T17:34:00.908Z,2.50
2018-02-09T17:36:28.366Z,2.50
2018-02-09T17:38:55.840Z,2.50
2018-02-09T17:41:23.374Z,2.60
2018-02-09T17:43:50.853Z,2.60
2018-02-09T17:46:18.505Z,2.60
2018-02-09T17:48:45.971Z,2.50
2018-02-09T17:51:14.251Z,2.60
2018-02-09T17:53:42.506Z,2.40
2018-02-09T17:56:09.988Z,2.40
2018-02-09T17:58:37.484Z,2.50
2018-02-09T18:01:04.963Z,2.40
2018-02-09T18:03:32.474Z,2.40
2018-02-09T18:06:00.691Z,2.30
2018-02-09T18:08:28.236Z,2.40
2018-02-09T18:10:56.485Z,2.30
2018-02-09T18:13:24.000Z,2.30
2018-02-09T18:15:52.298Z,2.30
2018-02-09T18:18:20.523Z,2.30
2018-02-09T18:20:48.017Z,2.30
2018-02-09T18:23:15.471Z,2.30
2018-02-09T18:25:42.960Z,2.40
2018-02-09T18:28:10.511Z,2.50
2018-02-09T18:30:37.987Z,2.40
2018-02-09T18:33:05.483Z,2.50
2018-02-09T18:35:32.988Z,2.60
2018-02-09T18:38:00.578Z,2.70
2018-02-09T18:40:28.089Z,2.70
2018-02-09T18:42:55.589Z,2.60
2018-02-09T18:45:23.015Z,2.50
2018-02-09T18:47:51.251Z,2.50
2018-02-09T18:50:18.852Z,2.40
2018-02-09T18:52:46.363Z,2.50
2018-02-09T18:55:13.844Z,2.50
2018-02-09T18:57:42.055Z,2.60
2018-02-09T19:00:09.575Z,2.60
2018-02-09T19:02:37.194Z,2.60
2018-02-09T19:05:04.672Z,2.50
2018-02-09T19:07:32.195Z,2.60
2018-02-09T19:09:59.748Z,2.50
2018-02-09T19:12:27.356Z,2.50
2018-02-09T19:14:54.884Z,2.60
2018-02-09T19:17:22.376Z,2.60
2018-02-09T19:19:49.948Z,2.60
2018-02-09T19:22:18.193Z,2.50
2018-02-09T19:24:45.815Z,2.60
2018-02-09T19:27:13.344Z,2.50
2018-02-09T19:29:44.801Z,2.40
2018-02-09T19:32:12.308Z,2.40
2018-02-09T19:34:40.961Z,2.40
2018-02-09T19:37:08.485Z,2.40
2018-02-09T19:39:36.697Z,2.50
2018-02-09T19:42:04.231Z,2.50
2018-02-09T19:44:31.699Z,2.60
2018-02-09T19:46:59.171Z,2.50
2018-02-09T19:49:27.297Z,2.50
2018-02-09T19:51:55.610Z,2.60
2018-02-09T19:54:23.082Z,2.50
2018-02-09T19:56:50.588Z,2.50
2018-02-09T19:59:18.116Z,2.40
2018-02-09T20:01:47.210Z,2.50
2018-02-09T20:04:14.715Z,2.50
2018-02-09T20:06:42.320Z,2.60
2018-02-09T20:09:11.396Z,2.40
2018-02-09T20:11:39.677Z,2.50
2018-02-09T20:14:07.209Z,2.50
2018-02-09T20:16:34.786Z,2.50
2018-02-09T20:19:02.297Z,2.40
2018-02-09T20:21:29.840Z,2.40
2018-02-09T20:23:57.361Z,2.40
2018-02-09T20:26:25.716Z,2.40
2018-02-09T20:28:53.160Z,2.40
2018-02-09T20:31:20.658Z,2.60
2018-02-09T20:33:48.132Z,2.60
2018-02-09T20:36:15.688Z,2.70
2018-02-09T20:38:43.247Z,2.60
2018-02-09T20:41:10.739Z,2.60
2018-02-09T20:43:38.226Z,2.70
2018-02-09T20:46:05.708Z,2.60
2018-02-09T20:48:33.801Z,2.60
2018-02-09T20:51:01.270Z,2.80
2018-02-09T20:53:28.789Z,2.70
2018-02-09T20:55:56.248Z,2.80
2018-02-09T20:58:23.743Z,2.80
2018-02-09T21:00:51.200Z,2.90
2018-02-09T21:03:18.927Z,2.80
2018-02-09T21:05:47.168Z,2.70
2018-02-09T21:08:14.894Z,2.70
2018-02-09T21:10:42.355Z,2.70
2018-02-09T21:13:14.460Z,2.50
2018-02-09T21:15:41.996Z,2.60
2018-02-09T21:18:09.481Z,2.60
2018-02-09T21:20:37.758Z,2.60
2018-02-09T21:23:09.280Z,2.60
2018-02-09T21:25:36.964Z,2.50
2018-02-09T21:28:06.153Z,2.60
2018-02-09T21:30:34.658Z,2.60
2018-02-09T21:33:06.694Z,2.60
2018-02-09T21:35:34.181Z,2.50
2018-02-09T21:38:01.669Z,2.60
2018-02-09T21:40:29.161Z,2.50
2018-02-09T21:42:56.644Z,2.50
2018-02-09T21:45:24.890Z,2.60
2018-02-09T21:47:52.695Z,2.40
2018-02-09T21:50:20.242Z,2.50
2018-02-09T21:52:47.765Z,2.40
2018-02-09T21:55:20.478Z,2.40
2018-02-09T21:57:47.977Z,2.40
2018-02-09T22:00:23.337Z,2.30
2018-02-09T22:02:50.811Z,2.20
2018-02-09T22:05:18.295Z,2.20
2018-02-09T22:07:46.481Z,2.20
2018-02-09T22:10:14.000Z,2.30
2018-02-09T22:12:42.356Z,2.40
2018-02-09T22:15:09.880Z,2.40
2018-02-09T22:17:37.393Z,2.30
2018-02-09T22:20:04.952Z,2.10
2018-02-09T22:22:32.681Z,2.10
2018-02-09T22:25:00.276Z,1.90
2018-02-09T22:27:28.908Z,2.10
2018-02-09T22:29:58.329Z,2.10
2018-02-09T22:32:26.687Z,2.00
2018-02-09T22:34:54.148Z,2.00
2018-02-09T22:37:21.590Z,2.10
2018-02-09T22:39:49.182Z,2.10
2018-02-09T22:42:18.628Z,2.10
2018-02-09T22:44:46.121Z,2.00
2018-02-09T22:47:13.695Z,1.90
2018-02-09T22:49:41.202Z,2.00
2018-02-09T22:52:08.756Z,2.00
2018-02-09T22:54:36.207Z,1.90
2018-02-09T22:57:04.634Z,2.00
2018-02-09T22:59:32.952Z,2.10
2018-02-09T23:02:00.475Z,2.10
2018-02-09T23:04:27.964Z,2.30
2018-02-09T23:06:56.308Z,2.30
2018-02-09T23:09:23.744Z,2.30
2018-02-09T23:11:51.283Z,2.30
2018-02-09T23:14:18.813Z,2.50
2018-02-09T23:16:46.302Z,2.60
2018-02-09T23:19:13.766Z,2.70
2018-02-09T23:21:41.247Z,2.60
2018-02-09T23:24:08.840Z,2.60
2018-02-09T23:26:36.294Z,2.40
2018-02-09T23:29:03.783Z,2.40
2018-02-09T23:31:31.998Z,2.10
2018-02-09T23:33:59.476Z,2.10
2018-02-09T23:36:26.932Z,2.10
2018-02-09T23:38:54.403Z,2.10
2018-02-09T23:41:21.875Z,2.10
2018-02-09T23:43:49.331Z,2.20
2018-02-09T23:46:16.900Z,2.30
2018-02-09T23:48:44.387Z,2.20
2018-02-09T23:51:11.905Z,2.10
2018-02-09T23:53:39.435Z,2.10
2018-02-09T23:56:06.952Z,2.00
2018-02-09T23:58:34.501Z,2.10
